Time;durP1;ratioP1;P1;durP2;ratioP2;P2;SDS_P1;SDS_P2;PMS_P1;PMS_P2;Temp;Humidity;BMP_temperature;BMP_pressure;BME280_temperature;BME280_humidity;BME280_pressure;Samples;Min_cycle;Max_cycle;Signal;HPM_P1;HPM_P2
2020/12/30 00:00:14;;;;;;;15.10;10.27;;;;;;;2.45;100.00;96340.72;5093547;28;20204;-73
2020/12/30 00:02:40;;;;;;;14.17;10.03;;;;;;;2.65;100.00;96339.94;5093686;28;20250;-72
2020/12/30 00:05:09;;;;;;;14.07;10.13;;;;;;;2.68;100.00;96339.31;5091825;28;20289;-72
2020/12/30 00:07:36;;;;;;;13.03;10.03;;;;;;;2.78;100.00;96336.16;5093618;28;20201;-71
2020/12/30 00:10:04;;;;;;;18.70;10.77;;;;;;;2.63;100.00;96336.75;5093289;28;20238;-71
2020/12/30 00:12:34;;;;;;;16.87;10.07;;;;;;;2.64;100.00;96335.63;5091295;28;20219;-71
2020/12/30 00:15:00;;;;;;;14.60;10.50;;;;;;;2.86;100.00;96332.59;5094608;28;20224;-71
2020/12/30 00:17:26;;;;;;;17.07;10.17;;;;;;;2.71;100.00;96338.63;5095536;28;20228;-71
2020/12/30 00:19:53;;;;;;;14.70;10.03;;;;;;;2.64;100.00;96332.91;5088922;28;20210;-72
2020/12/30 00:22:19;;;;;;;15.93;10.27;;;;;;;2.67;100.00;96334.97;5088567;28;20290;-73
2020/12/30 00:24:46;;;;;;;14.83;10.17;;;;;;;2.65;100.00;96339.94;5088150;28;20287;-73
2020/12/30 00:27:12;;;;;;;14.07;9.93;;;;;;;2.29;100.00;96342.41;5087666;28;20258;-73
2020/12/30 00:29:39;;;;;;;14.77;10.60;;;;;;;2.31;100.00;96340.16;5089184;28;20204;-72
2020/12/30 00:32:12;;;;;;;13.07;9.83;;;;;;;2.25;100.00;96344.97;5092090;28;20219;-72
2020/12/30 00:34:41;;;;;;;16.17;10.73;;;;;;;2.19;100.00;96348.22;5091040;28;20278;-72
2020/12/30 00:37:07;;;;;;;15.13;10.50;;;;;;;2.22;100.00;96347.56;5103224;28;20285;-73
2020/12/30 00:39:34;;;;;;;16.10;10.47;;;;;;;2.10;100.00;96350.19;5107234;28;20637;-72
2020/12/30 00:42:00;;;;;;;17.27;11.07;;;;;;;2.08;100.00;96347.00;5093051;28;20294;-72
2020/12/30 00:44:26;;;;;;;14.33;10.33;;;;;;;2.34;100.00;96342.22;5092783;28;20196;-73
2020/12/30 00:46:56;;;;;;;15.50;10.83;;;;;;;2.20;100.00;96342.47;5092469;28;20221;-73
2020/12/30 00:49:22;;;;;;;14.73;10.47;;;;;;;2.05;100.00;96353.88;5092768;28;20368;-72
2020/12/30 00:51:53;;;;;;;18.67;10.33;;;;;;;2.21;100.00;96345.97;5091303;28;20296;-72
2020/12/30 00:54:20;;;;;;;15.23;10.40;;;;;;;2.16;100.00;96348.88;5091838;28;20233;-72
2020/12/30 00:56:47;;;;;;;14.20;10.33;;;;;;;2.18;100.00;96355.59;5091294;28;20248;-73
2020/12/30 00:59:14;;;;;;;15.00;10.10;;;;;;;2.20;100.00;96352.53;5092376;28;20200;-73
2020/12/30 01:34:06;;;;;;;17.80;11.70;;;;;;;1.93;100.00;96398.06;5109444;27;20549;-72
2020/12/30 01:36:33;;;;;;;17.67;12.20;;;;;;;2.12;100.00;96397.69;5091666;28;20651;-72
2020/12/30 01:38:59;;;;;;;17.00;12.57;;;;;;;2.17;100.00;96392.09;5109553;28;20253;-72
2020/12/30 01:41:25;;;;;;;20.93;13.47;;;;;;;2.04;100.00;96396.59;5108589;28;20302;-72
2020/12/30 01:44:10;;;;;;;18.40;12.20;;;;;;;1.94;100.00;96391.53;5109446;28;20296;-71
2020/12/30 01:46:36;;;;;;;19.33;12.23;;;;;;;2.04;100.00;96391.16;5109361;28;20224;-71
2020/12/30 01:49:23;;;;;;;17.63;12.23;;;;;;;2.01;100.00;96391.81;5108243;28;20214;-73
2020/12/30 01:51:51;;;;;;;16.87;11.13;;;;;;;2.03;100.00;96397.72;5109416;28;20210;-71
2020/12/30 01:54:18;;;;;;;20.50;13.23;;;;;;;2.16;100.00;96400.56;5108868;28;20242;-73
2020/12/30 01:56:46;;;;;;;16.77;11.37;;;;;;;2.02;100.00;96387.19;5109386;28;20319;-73
2020/12/30 01:59:15;;;;;;;16.80;12.00;;;;;;;2.00;100.00;96384.78;5109465;28;20294;-72
2020/12/30 02:01:44;;;;;;;17.07;11.80;;;;;;;1.86;100.00;96394.28;5108729;28;20250;-72
2020/12/30 02:04:11;;;;;;;16.93;12.17;;;;;;;1.66;100.00;96386.81;5109294;28;20743;-72
2020/12/30 02:06:38;;;;;;;19.67;12.57;;;;;;;1.71;100.00;96390.16;5123139;28;20220;-71
2020/12/30 02:09:05;;;;;;;16.87;12.03;;;;;;;1.70;100.00;96393.97;5130244;28;20227;-71
2020/12/30 02:11:33;;;;;;;18.27;11.73;;;;;;;1.68;100.00;96396.22;5095869;28;20204;-71
2020/12/30 02:14:08;;;;;;;15.87;10.87;;;;;;;1.57;100.00;96394.97;5088148;28;20264;-72
2020/12/30 02:16:47;;;;;;;16.27;11.83;;;;;;;1.61;100.00;96398.63;5088339;28;20259;-72
2020/12/30 02:19:13;;;;;;;16.67;11.73;;;;;;;1.62;100.00;96400.25;5088654;28;20287;-72
2020/12/30 02:21:39;;;;;;;18.53;12.33;;;;;;;1.61;100.00;96393.19;5088660;28;20291;-72
2020/12/30 02:24:07;;;;;;;16.33;12.00;;;;;;;1.67;100.00;96400.06;5087044;28;20283;-71
2020/12/30 02:26:33;;;;;;;18.33;12.00;;;;;;;1.70;100.00;96401.31;5070334;28;20294;-72
2020/12/30 02:28:59;;;;;;;19.53;12.30;;;;;;;1.78;100.00;96400.53;5086971;28;20670;-71
2020/12/30 02:31:27;;;;;;;18.00;12.47;;;;;;;1.55;100.00;96396.41;5088082;28;20200;-71
2020/12/30 02:33:53;;;;;;;16.33;11.23;;;;;;;1.82;100.00;96396.84;5087625;28;20264;-71
2020/12/30 02:36:19;;;;;;;18.23;12.17;;;;;;;1.89;100.00;96388.19;5087027;28;20274;-72
2020/12/30 02:38:51;;;;;;;17.33;11.50;;;;;;;1.73;100.00;96389.81;5086948;28;20236;-71
2020/12/30 02:41:18;;;;;;;16.97;11.90;;;;;;;1.59;100.00;96400.88;5088156;28;20215;-71
2020/12/30 02:43:44;;;;;;;15.63;11.13;;;;;;;1.61;100.00;96393.19;5083900;28;20713;-71
2020/12/30 02:46:10;;;;;;;17.37;11.90;;;;;;;1.60;100.00;96397.06;5074127;28;20307;-71
2020/12/30 02:48:36;;;;;;;14.77;10.90;;;;;;;1.58;100.00;96398.47;5073560;28;20750;-71
2020/12/30 02:51:02;;;;;;;16.37;12.13;;;;;;;1.61;100.00;96397.81;5073319;28;20232;-71
2020/12/30 02:53:28;;;;;;;20.07;12.70;;;;;;;1.53;100.00;96399.47;5072884;28;20243;-71
2020/12/30 02:55:54;;;;;;;18.70;12.13;;;;;;;1.50;100.00;96402.81;5074118;28;20229;-72
2020/12/30 02:58:20;;;;;;;17.67;12.37;;;;;;;1.50;100.00;96402.00;5074668;28;20245;-71
2020/12/30 03:00:46;;;;;;;16.03;12.07;;;;;;;1.61;100.00;96403.25;5073371;28;20214;-71
2020/12/30 03:03:12;;;;;;;18.73;11.60;;;;;;;1.52;100.00;96408.72;5074199;28;20251;-71
2020/12/30 03:05:38;;;;;;;18.73;11.67;;;;;;;1.60;100.00;96409.84;5073956;28;20282;-71
2020/12/30 03:08:04;;;;;;;17.13;11.70;;;;;;;1.64;100.00;96411.56;5072880;28;20247;-71
2020/12/30 03:10:30;;;;;;;18.03;11.23;;;;;;;1.46;100.00;96411.94;5072840;28;20201;-71
2020/12/30 03:12:56;;;;;;;19.60;11.63;;;;;;;1.51;100.00;96415.28;5073821;28;20783;-70
2020/12/30 03:15:22;;;;;;;19.50;12.00;;;;;;;1.52;100.00;96406.00;5072653;28;20205;-71
2020/12/30 03:17:48;;;;;;;17.87;11.53;;;;;;;1.57;100.00;96411.25;5073992;28;20213;-71
2020/12/30 03:20:14;;;;;;;14.97;10.70;;;;;;;1.58;100.00;96404.72;5073930;28;20689;-70
2020/12/30 03:22:40;;;;;;;16.07;11.53;;;;;;;1.57;100.00;96407.78;5073871;28;20262;-70
2020/12/30 03:25:09;;;;;;;16.73;11.97;;;;;;;1.35;100.00;96416.88;5073425;28;20564;-72
2020/12/30 03:27:35;;;;;;;17.23;12.50;;;;;;;1.78;100.00;96414.91;5073893;28;20205;-71
2020/12/30 03:30:02;;;;;;;16.43;11.83;;;;;;;1.51;100.00;96415.28;5076353;28;20240;-71
2020/12/30 03:32:28;;;;;;;18.37;12.40;;;;;;;1.95;100.00;96414.09;5074555;28;20452;-73
2020/12/30 03:34:54;;;;;;;16.80;11.80;;;;;;;2.02;100.00;96415.19;5068103;28;20572;-73
2020/12/30 03:37:20;;;;;;;16.57;11.93;;;;;;;2.11;100.00;96408.91;5073769;28;20225;-71
2020/12/30 03:39:49;;;;;;;15.60;11.33;;;;;;;1.86;100.00;96411.38;5072995;28;20204;-72
2020/12/30 03:42:15;;;;;;;17.43;11.60;;;;;;;1.76;100.00;96414.44;5088909;28;20205;-72
2020/12/30 03:44:42;;;;;;;14.77;11.10;;;;;;;1.86;100.00;96419.53;5074559;28;20213;-72
2020/12/30 03:47:08;;;;;;;14.50;10.77;;;;;;;1.73;100.00;96417.78;5071960;28;20609;-72
2020/12/30 03:49:34;;;;;;;16.27;11.87;;;;;;;1.78;100.00;96414.91;5070620;28;20241;-71
2020/12/30 03:52:01;;;;;;;16.43;12.47;;;;;;;1.77;100.00;96429.63;5072624;28;20255;-71
2020/12/30 03:54:30;;;;;;;16.47;11.07;;;;;;;1.73;100.00;96417.78;5072687;28;20233;-72
2020/12/30 03:56:56;;;;;;;16.33;11.60;;;;;;;1.46;100.00;96423.59;5070979;28;20673;-71
2020/12/30 03:59:23;;;;;;;17.57;11.63;;;;;;;1.31;100.00;96426.81;5072064;28;20201;-73
2020/12/30 04:01:49;;;;;;;16.77;11.80;;;;;;;1.69;100.00;96425.00;5071879;28;20205;-72
2020/12/30 04:04:15;;;;;;;16.53;11.83;;;;;;;1.67;100.00;96424.53;5072728;28;20201;-72
2020/12/30 04:06:43;;;;;;;17.07;12.67;;;;;;;1.55;100.00;96427.09;5072669;28;20665;-72
2020/12/30 04:09:10;;;;;;;14.93;11.50;;;;;;;1.35;100.00;96427.75;5072824;28;20276;-72
2020/12/30 04:11:36;;;;;;;15.23;11.60;;;;;;;1.65;100.00;96417.81;5071721;28;20205;-71
2020/12/30 04:14:02;;;;;;;14.80;11.63;;;;;;;1.67;100.00;96427.25;5072440;28;20235;-71
2020/12/30 04:16:28;;;;;;;17.43;12.43;;;;;;;1.45;100.00;96435.59;5072650;28;20264;-73
2020/12/30 04:18:57;;;;;;;18.17;12.43;;;;;;;1.24;100.00;96434.63;5073377;28;20735;-73
2020/12/30 04:21:24;;;;;;;16.70;11.80;;;;;;;1.51;100.00;96434.31;5055467;28;20201;-70
2020/12/30 04:23:54;;;;;;;18.53;11.70;;;;;;;1.44;100.00;96442.13;5096822;28;20197;-72
2020/12/30 04:26:21;;;;;;;18.53;11.63;;;;;;;1.37;100.00;96441.81;5080250;28;20247;-72
2020/12/30 04:28:48;;;;;;;17.40;12.03;;;;;;;1.40;100.00;96440.38;5072684;28;20205;-72
2020/12/30 04:31:16;;;;;;;14.80;10.83;;;;;;;1.44;100.00;96447.56;5071251;28;20312;-71
2020/12/30 04:33:43;;;;;;;18.13;11.50;;;;;;;1.28;100.00;96438.28;5070709;28;20252;-71
2020/12/30 04:36:10;;;;;;;17.43;12.00;;;;;;;1.49;100.00;96452.03;5072121;28;20328;-71
2020/12/30 04:38:36;;;;;;;18.80;11.80;;;;;;;1.20;100.00;96449.16;5072244;28;20629;-71
2020/12/30 04:41:05;;;;;;;18.70;11.90;;;;;;;1.17;100.00;96452.53;5072507;28;20301;-72
2020/12/30 04:43:35;;;;;;;17.83;12.03;;;;;;;1.44;100.00;96461.16;5072105;28;20616;-71
2020/12/30 04:46:02;;;;;;;14.17;11.13;;;;;;;1.34;100.00;96460.66;5070748;28;20652;-71
2020/12/30 04:48:31;;;;;;;16.40;11.67;;;;;;;1.41;100.00;96463.72;5072038;28;20850;-71
2020/12/30 04:50:58;;;;;;;20.20;11.87;;;;;;;1.68;100.00;96458.75;5070950;28;20229;-71
2020/12/30 04:53:24;;;;;;;17.13;11.47;;;;;;;1.54;100.00;96462.75;5070798;28;20274;-71
2020/12/30 04:55:51;;;;;;;17.40;12.03;;;;;;;1.43;100.00;96464.19;5072049;28;20221;-72
2020/12/30 04:58:18;;;;;;;17.73;12.70;;;;;;;1.73;100.00;96460.50;5072224;28;20233;-71
2020/12/30 05:00:46;;;;;;;14.90;10.73;;;;;;;1.88;100.00;96463.50;5072133;28;20205;-71
2020/12/30 05:03:13;;;;;;;15.10;10.90;;;;;;;1.68;100.00;96469.63;5071674;28;20288;-71
2020/12/30 05:05:45;;;;;;;18.10;11.43;;;;;;;1.36;100.00;96472.84;5070958;28;20765;-70
2020/12/30 05:08:13;;;;;;;15.27;11.70;;;;;;;1.23;100.00;96478.41;5082752;28;20244;-70
2020/12/30 05:10:45;;;;;;;17.00;11.87;;;;;;;1.49;100.00;96477.31;5094398;28;20209;-71
2020/12/30 05:13:11;;;;;;;14.83;10.70;;;;;;;1.48;100.00;96475.69;5092016;28;20217;-72
2020/12/30 05:15:37;;;;;;;17.10;11.77;;;;;;;1.57;100.00;96484.66;5090484;28;20600;-70
2020/12/30 05:18:05;;;;;;;18.00;12.00;;;;;;;1.36;100.00;96483.69;5092299;28;20281;-70
2020/12/30 05:20:36;;;;;;;16.43;11.87;;;;;;;1.34;100.00;96480.50;5092051;28;20211;-72
2020/12/30 05:23:04;;;;;;;16.07;12.07;;;;;;;1.29;100.00;96488.81;5091886;28;20239;-72
2020/12/30 05:25:33;;;;;;;14.43;11.20;;;;;;;1.18;100.00;96490.22;5091958;28;20260;-72
2020/12/30 05:28:02;;;;;;;18.13;12.47;;;;;;;1.16;100.00;96483.50;5091824;28;20637;-72
2020/12/30 05:30:30;;;;;;;18.43;12.20;;;;;;;0.99;100.00;96484.28;5091960;28;20208;-71
2020/12/30 05:32:57;;;;;;;16.87;12.47;;;;;;;1.22;100.00;96484.97;5091632;28;20224;-71
2020/12/30 05:35:23;;;;;;;16.90;12.00;;;;;;;1.14;100.00;96496.59;5091750;28;20211;-71
2020/12/30 05:37:49;;;;;;;16.43;12.37;;;;;;;1.15;100.00;96490.06;5091884;28;20315;-71
2020/12/30 05:40:23;;;;;;;17.30;12.37;;;;;;;1.12;100.00;96499.63;5091906;28;20299;-71
2020/12/30 05:42:51;;;;;;;16.10;12.47;;;;;;;1.07;100.00;96497.09;5090392;28;20204;-73
2020/12/30 05:45:22;;;;;;;17.37;13.43;;;;;;;1.12;100.00;96488.78;5091802;28;20244;-73
2020/12/30 05:47:51;;;;;;;19.97;11.97;;;;;;;0.97;100.00;96508.22;5090535;28;20287;-73
2020/12/30 05:50:22;;;;;;;22.77;13.20;;;;;;;1.12;100.00;96502.34;5090797;28;20264;-72
2020/12/30 05:52:50;;;;;;;17.60;12.30;;;;;;;1.17;100.00;96513.06;5091308;28;20319;-72
2020/12/30 05:55:16;;;;;;;20.07;12.33;;;;;;;1.20;100.00;96512.44;5091130;28;20208;-71
2020/12/30 05:57:42;;;;;;;19.43;13.07;;;;;;;1.19;100.00;96520.91;5091803;28;20309;-71
2020/12/30 06:00:10;;;;;;;18.20;11.43;;;;;;;1.34;100.00;96523.97;5090372;28;20617;-71
2020/12/30 06:02:41;;;;;;;15.97;11.57;;;;;;;1.36;100.00;96524.44;5090252;28;20211;-73
2020/12/30 06:05:11;;;;;;;16.03;12.20;;;;;;;1.39;100.00;96526.53;5091382;28;20287;-72
2020/12/30 06:07:56;;;;;;;18.53;12.80;;;;;;;1.39;100.00;96529.25;5091183;28;20739;-72
2020/12/30 06:10:24;;;;;;;14.30;10.87;;;;;;;1.68;100.00;96528.63;5088337;28;20227;-72
2020/12/30 06:12:53;;;;;;;18.23;12.20;;;;;;;1.81;100.00;96528.47;5070800;28;20275;-73
2020/12/30 06:15:38;;;;;;;20.87;12.07;;;;;;;1.91;100.00;96528.16;5070878;28;20319;-72
2020/12/30 06:18:09;;;;;;;17.63;12.13;;;;;;;1.83;100.00;96528.94;5069687;28;20724;-74
2020/12/30 06:20:40;;;;;;;18.07;12.13;;;;;;;1.82;100.00;96534.72;5074124;28;20258;-72
2020/12/30 06:23:06;;;;;;;16.87;12.10;;;;;;;1.83;100.00;96536.28;5074981;28;20201;-72
2020/12/30 06:25:38;;;;;;;15.10;11.00;;;;;;;1.86;100.00;96541.09;5074882;28;20313;-72
2020/12/30 06:28:09;;;;;;;15.37;11.00;;;;;;;1.52;100.00;96535.66;5090311;28;20726;-73
2020/12/30 06:30:36;;;;;;;15.83;11.20;;;;;;;1.52;100.00;96544.59;5074210;28;20213;-73
2020/12/30 06:33:03;;;;;;;16.93;11.80;;;;;;;1.51;100.00;96536.78;5072714;28;20311;-72
2020/12/30 06:35:31;;;;;;;21.23;12.37;;;;;;;1.64;100.00;96543.97;5073283;28;20274;-72
2020/12/30 06:37:58;;;;;;;18.87;12.33;;;;;;;1.85;100.00;96553.91;5076949;28;20236;-71
2020/12/30 06:40:30;;;;;;;18.43;12.80;;;;;;;1.75;100.00;96556.16;5087692;28;20205;-71
2020/12/30 06:43:01;;;;;;;21.87;12.07;;;;;;;1.80;100.00;96551.34;5076953;28;20288;-72
2020/12/30 06:45:42;;;;;;;28.17;12.20;;;;;;;1.70;100.00;96564.44;5078074;28;20744;-71
2020/12/30 06:48:10;;;;;;;27.47;12.70;;;;;;;1.78;100.00;96563.66;5070073;28;20209;-71
2020/12/30 06:50:37;;;;;;;33.80;12.00;;;;;;;1.44;100.00;96572.56;5070217;28;20778;-72
2020/12/30 06:53:31;;;;;;;35.13;11.77;;;;;;;1.38;100.00;96573.84;5069764;28;20315;-71
2020/12/30 06:55:59;;;;;;;32.00;12.27;;;;;;;1.33;100.00;96584.06;5069555;28;20588;-71
2020/12/30 06:58:48;;;;;;;74.27;12.57;;;;;;;1.05;100.00;96578.06;5070641;28;20638;-71
2020/12/30 07:01:22;;;;;;;36.77;12.67;;;;;;;1.13;100.00;96588.16;5078492;28;20208;-71
2020/12/30 07:03:49;;;;;;;25.27;10.37;;;;;;;1.45;100.00;96590.47;5090652;28;20284;-71
2020/12/30 07:06:23;;;;;;;44.93;12.33;;;;;;;1.32;100.00;96580.53;5092036;28;20224;-71
2020/12/30 07:08:53;;;;;;;24.67;10.93;;;;;;;1.49;100.00;96591.44;5093870;28;20591;-71
2020/12/30 07:11:47;;;;;;;28.07;11.30;;;;;;;1.28;100.00;96590.44;5082548;28;20402;-72
2020/12/30 07:14:16;;;;;;;14.57;11.03;;;;;;;1.48;100.00;96599.94;5072505;28;20228;-72
2020/12/30 07:16:56;;;;;;;18.83;10.77;;;;;;;1.50;100.00;96595.75;5072987;28;20312;-72
2020/12/30 07:19:27;;;;;;;15.27;10.77;;;;;;;1.58;100.00;96605.84;5079791;28;20274;-71
2020/12/30 07:22:00;;;;;;;13.70;10.33;;;;;;;1.73;100.00;96597.22;5091798;28;20299;-71
2020/12/30 07:24:40;;;;;;;12.93;10.10;;;;;;;1.78;100.00;96605.25;5107869;28;20193;-71
2020/12/30 07:27:11;;;;;;;21.30;11.83;;;;;;;1.85;100.00;96596.59;5106406;28;20308;-71
2020/12/30 07:29:41;;;;;;;13.83;10.30;;;;;;;2.21;100.00;96607.16;5090707;28;20243;-71
2020/12/30 07:32:09;;;;;;;13.90;10.43;;;;;;;2.54;100.00;96589.97;5093388;28;20968;-71
2020/12/30 07:34:52;;;;;;;13.63;10.17;;;;;;;2.67;100.00;96590.91;5094620;28;20291;-72
2020/12/30 07:37:20;;;;;;;14.67;10.00;;;;;;;2.92;100.00;96590.81;5093725;28;20262;-72
2020/12/30 07:39:48;;;;;;;12.73;9.67;;;;;;;2.97;100.00;96585.19;5092219;28;20295;-70
2020/12/30 07:42:16;;;;;;;11.87;9.37;;;;;;;3.27;100.00;96591.47;5091866;28;20258;-70
2020/12/30 07:44:51;;;;;;;15.03;9.03;;;;;;;3.35;100.00;96593.38;5093036;28;20208;-68
2020/12/30 07:47:17;;;;;;;11.07;8.37;;;;;;;2.85;100.00;96592.44;5092664;28;20315;-68
2020/12/30 07:49:44;;;;;;;13.43;9.63;;;;;;;2.67;100.00;96604.53;5092825;28;20284;-68
2020/12/30 07:52:10;;;;;;;13.57;9.57;;;;;;;2.39;100.00;96608.75;5091958;28;20296;-68
2020/12/30 07:54:37;;;;;;;20.23;11.10;;;;;;;2.22;100.00;96609.56;5091870;28;20271;-69
2020/12/30 07:57:05;;;;;;;15.60;10.90;;;;;;;2.37;100.00;96622.69;5092744;28;20263;-69
2020/12/30 07:59:33;;;;;;;16.70;10.87;;;;;;;2.12;100.00;96631.63;5091750;28;20234;-70
2020/12/30 08:02:10;;;;;;;17.33;11.17;;;;;;;2.12;100.00;96636.31;5092928;28;20257;-69
2020/12/30 08:04:37;;;;;;;14.87;11.03;;;;;;;2.20;100.00;96633.56;5092430;28;20291;-69
2020/12/30 08:07:08;;;;;;;17.97;10.80;;;;;;;2.19;100.00;96631.19;5093691;28;20228;-69
2020/12/30 08:09:36;;;;;;;16.13;11.70;;;;;;;2.08;100.00;96628.75;5110574;28;20209;-69
2020/12/30 08:12:07;;;;;;;15.77;10.63;;;;;;;1.87;100.00;96625.09;5094246;28;20236;-68
2020/12/30 08:14:36;;;;;;;15.83;11.77;;;;;;;2.04;100.00;96621.56;5091558;28;20277;-69
2020/12/30 08:17:07;;;;;;;18.47;12.33;;;;;;;2.00;100.00;96629.56;5091984;28;20553;-69
2020/12/30 08:19:45;;;;;;;19.10;13.40;;;;;;;2.53;100.00;96625.69;5092629;28;20208;-69
2020/12/30 08:22:23;;;;;;;19.90;12.50;;;;;;;2.82;100.00;96629.31;5092359;28;20239;-69
2020/12/30 08:24:52;;;;;;;16.13;11.60;;;;;;;2.68;100.00;96633.38;5091405;28;20673;-69
2020/12/30 08:27:22;;;;;;;16.57;10.97;;;;;;;2.58;100.00;96639.94;5091788;28;20224;-69
2020/12/30 08:30:00;;;;;;;16.63;10.73;;;;;;;2.74;100.00;96642.94;5092613;28;20284;-69
2020/12/30 08:32:26;;;;;;;17.83;11.47;;;;;;;2.77;100.00;96642.31;5091999;28;20334;-71
2020/12/30 08:35:16;;;;;;;13.97;10.70;;;;;;;2.78;100.00;96646.63;5090776;28;20780;-71
2020/12/30 08:37:51;;;;;;;19.90;11.33;;;;;;;2.52;100.00;96651.34;5091872;28;20219;-71
2020/12/30 08:40:25;;;;;;;17.97;10.53;;;;;;;1.86;100.00;96650.66;5091031;28;20204;-70
2020/12/30 08:42:55;;;;;;;15.70;10.67;;;;;;;1.96;100.00;96655.81;5089849;28;20286;-71
2020/12/30 08:45:27;;;;;;;105.57;12.40;;;;;;;1.94;100.00;96671.63;5090069;28;20231;-71
2020/12/30 08:47:58;;;;;;;41.23;10.60;;;;;;;1.82;100.00;96674.19;5090164;28;20227;-71
2020/12/30 08:50:28;;;;;;;88.87;11.50;;;;;;;1.88;100.00;96681.06;5090385;28;20187;-70
2020/12/30 08:52:57;;;;;;;125.00;11.47;;;;;;;1.69;100.00;96677.03;5089229;28;20225;-74
2020/12/30 08:55:23;;;;;;;63.57;11.13;;;;;;;1.46;100.00;96679.03;5089490;28;20756;-70
2020/12/30 08:57:49;;;;;;;110.17;10.43;;;;;;;2.00;100.00;96683.97;5091694;28;20291;-70
2020/12/30 09:00:20;;;;;;;30.47;9.93;;;;;;;2.00;100.00;96692.13;5093810;28;20224;-70
2020/12/30 09:02:48;;;;;;;21.40;9.70;;;;;;;2.14;100.00;96693.88;5091830;28;20295;-70
2020/12/30 09:05:27;;;;;;;18.93;9.80;;;;;;;2.01;100.00;96701.88;5090970;28;20307;-70
2020/12/30 09:07:54;;;;;;;28.33;9.93;;;;;;;1.47;100.00;96705.09;5091876;28;20250;-70
2020/12/30 09:10:21;;;;;;;18.53;10.23;;;;;;;2.01;100.00;96704.59;5088732;28;20894;-69
2020/12/30 09:12:48;;;;;;;13.40;9.90;;;;;;;2.35;100.00;96706.56;5071167;28;20260;-71
2020/12/30 09:15:15;;;;;;;21.63;9.87;;;;;;;2.41;100.00;96712.66;5053428;28;20237;-69
2020/12/30 09:17:42;;;;;;;21.57;11.20;;;;;;;2.93;100.00;96708.75;5071934;28;20358;-70
2020/12/30 09:20:11;;;;;;;12.67;9.30;;;;;;;3.71;100.00;96697.28;5072776;28;20209;-71
2020/12/30 09:22:39;;;;;;;12.27;9.30;;;;;;;2.85;100.00;96699.47;5072058;28;20216;-69
2020/12/30 09:25:08;;;;;;;11.03;9.10;;;;;;;3.61;100.00;96700.34;5071578;28;20207;-70
2020/12/30 09:27:45;;;;;;;12.87;9.53;;;;;;;4.06;100.00;96695.97;5082037;28;20292;-71
2020/12/30 09:30:14;;;;;;;11.73;8.50;;;;;;;5.47;100.00;96684.72;5073834;28;20286;-71
2020/12/30 09:32:44;;;;;;;10.57;8.50;;;;;;;4.93;100.00;96684.00;5091723;28;20216;-72
2020/12/30 09:35:13;;;;;;;11.17;8.27;;;;;;;4.53;100.00;96690.31;5091167;28;20240;-70
2020/12/30 09:37:53;;;;;;;11.47;8.47;;;;;;;4.94;100.00;96690.28;5094028;28;20228;-70
2020/12/30 09:40:20;;;;;;;12.43;8.23;;;;;;;4.13;100.00;96690.78;5108679;28;20207;-70
2020/12/30 09:42:47;;;;;;;10.50;8.17;;;;;;;2.92;100.00;96693.53;5093966;28;20633;-70
2020/12/30 09:45:18;;;;;;;9.60;8.40;;;;;;;3.44;100.00;96700.44;5084830;28;20193;-69
2020/12/30 09:47:44;;;;;;;10.40;8.43;;;;;;;3.97;100.00;96697.94;5078515;28;20236;-69
2020/12/30 09:50:13;;;;;;;12.20;8.60;;;;;;;4.08;100.00;96698.34;5081519;28;20255;-70
2020/12/30 09:52:44;;;;;;;10.10;8.10;;;;;;;3.86;100.00;96688.53;5080504;28;20197;-70
2020/12/30 09:55:12;;;;;;;10.77;8.13;;;;;;;3.52;100.00;96694.16;5081414;28;20196;-69
2020/12/30 09:57:38;;;;;;;12.63;8.63;;;;;;;3.92;100.00;96705.53;5084619;28;20192;-69
2020/12/30 10:00:07;;;;;;;11.90;8.40;;;;;;;4.02;100.00;96689.56;5078810;28;20205;-70
2020/12/30 10:02:34;;;;;;;12.87;9.40;;;;;;;3.27;100.00;96700.50;5081290;28;20758;-69
2020/12/30 10:05:00;;;;;;;12.60;9.00;;;;;;;2.96;100.00;96699.94;5079086;28;20709;-71
2020/12/30 10:07:26;;;;;;;13.40;9.37;;;;;;;2.99;100.00;96705.53;5078870;28;20225;-72
2020/12/30 10:09:53;;;;;;;12.53;9.77;;;;;;;3.72;100.00;96700.81;5081124;28;20199;-71
2020/12/30 10:12:21;;;;;;;11.97;9.50;;;;;;;3.35;100.00;96702.41;5078900;28;20207;-71
2020/12/30 10:14:47;;;;;;;12.27;9.17;;;;;;;4.01;100.00;96701.59;5090740;28;20224;-69
2020/12/30 10:17:13;;;;;;;15.23;9.23;;;;;;;4.40;100.00;96705.06;5092388;28;20721;-69
2020/12/30 10:19:39;;;;;;;14.30;10.00;;;;;;;4.55;100.00;96698.97;5092732;28;20727;-69
2020/12/30 10:22:07;;;;;;;12.07;9.67;;;;;;;4.58;100.00;96696.38;5101980;28;20208;-68
2020/12/30 10:24:33;;;;;;;11.30;9.23;;;;;;;4.48;100.00;96683.13;5112744;28;20217;-69
2020/12/30 10:27:00;;;;;;;11.43;8.70;;;;;;;4.94;100.00;96676.59;5104203;28;20284;-70
2020/12/30 10:29:28;;;;;;;11.33;9.00;;;;;;;6.12;100.00;96661.81;5099600;28;20295;-70
2020/12/30 10:31:55;;;;;;;10.87;8.67;;;;;;;6.80;100.00;96657.16;5094076;28;20330;-69
2020/12/30 10:34:22;;;;;;;11.23;8.67;;;;;;;6.92;100.00;96657.91;5093121;28;20224;-69
2020/12/30 10:36:49;;;;;;;11.17;8.33;;;;;;;6.65;100.00;96652.41;5094062;28;20239;-69
2020/12/30 10:39:16;;;;;;;10.93;6.87;;;;;;;5.58;100.00;96654.97;5092217;28;20316;-69
2020/12/30 10:41:42;;;;;;;12.50;8.40;;;;;;;6.02;100.00;96657.59;5093757;28;20200;-70
2020/12/30 10:44:08;;;;;;;11.17;8.10;;;;;;;6.22;100.00;96655.88;5093207;28;20329;-69
2020/12/30 10:46:36;;;;;;;9.27;7.37;;;;;;;5.65;100.00;96657.94;5093407;28;20723;-70
2020/12/30 10:49:03;;;;;;;9.57;7.10;;;;;;;6.66;100.00;96654.03;5092952;28;20240;-69
2020/12/30 10:51:29;;;;;;;9.77;6.93;;;;;;;6.95;100.00;96639.97;5093790;28;20685;-69
2020/12/30 10:53:56;;;;;;;8.93;6.33;;;;;;;7.44;100.00;96638.53;5093256;28;20598;-69
2020/12/30 10:56:22;;;;;;;12.53;7.33;;;;;;;7.14;100.00;96642.81;5092510;28;20243;-70
2020/12/30 10:58:48;;;;;;;7.70;5.90;;;;;;;7.01;100.00;96646.78;5093451;28;20204;-70
2020/12/30 11:01:14;;;;;;;7.60;5.63;;;;;;;7.20;100.00;96641.41;5092014;28;20254;-70
2020/12/30 11:03:41;;;;;;;8.73;6.20;;;;;;;6.39;100.00;96646.56;5091313;28;20292;-69
2020/12/30 11:06:08;;;;;;;8.33;5.73;;;;;;;4.80;100.00;96648.78;5098882;28;20224;-70
2020/12/30 11:08:34;;;;;;;9.50;6.67;;;;;;;5.61;100.00;96648.81;5114911;28;20189;-70
2020/12/30 11:11:01;;;;;;;8.93;6.10;;;;;;;5.63;100.00;96644.59;5088906;28;20295;-69
2020/12/30 11:13:28;;;;;;;7.67;5.93;;;;;;;4.91;100.00;96660.88;5087417;28;20224;-69
2020/12/30 11:15:54;;;;;;;8.33;6.57;;;;;;;5.16;100.00;96646.91;5088748;28;20570;-70
2020/12/30 11:18:21;;;;;;;8.10;6.53;;;;;;;5.29;100.00;96652.44;5088424;28;20232;-69
2020/12/30 11:20:48;;;;;;;8.47;6.50;;;;;;;5.54;100.00;96640.38;5088338;28;20286;-69
2020/12/30 11:23:15;;;;;;;9.63;6.43;;;;;;;6.71;100.00;96645.56;5090855;28;20315;-70
2020/12/30 11:25:41;;;;;;;8.03;6.27;;;;;;;7.34;100.00;96641.78;5092267;28;20712;-71
2020/12/30 11:28:08;;;;;;;9.17;6.60;;;;;;;7.23;100.00;96635.22;5092438;28;20284;-71
2020/12/30 11:30:35;;;;;;;7.17;5.70;;;;;;;7.08;100.00;96633.25;5091329;28;20231;-71
2020/12/30 11:33:01;;;;;;;8.87;6.77;;;;;;;7.04;100.00;96630.41;5091828;28;20311;-70
2020/12/30 11:35:32;;;;;;;10.03;7.10;;;;;;;7.55;100.00;96631.34;5092405;28;20238;-71
2020/12/30 11:38:01;;;;;;;9.20;6.13;;;;;;;7.41;100.00;96630.97;5092221;28;20629;-71
2020/12/30 11:40:28;;;;;;;11.07;5.97;;;;;;;7.63;100.00;96633.09;5091670;28;20227;-73
2020/12/30 11:42:54;;;;;;;9.93;6.10;;;;;;;7.48;100.00;96622.94;5074770;28;20254;-70
2020/12/30 11:45:20;;;;;;;9.37;5.60;;;;;;;7.78;100.00;96626.00;5091568;28;20269;-72
2020/12/30 11:47:47;;;;;;;7.67;5.80;;;;;;;7.33;100.00;96623.75;5092602;28;20228;-71
2020/12/30 11:50:14;;;;;;;7.67;5.57;;;;;;;7.67;100.00;96623.03;5092258;28;20235;-72
2020/12/30 11:52:45;;;;;;;8.97;6.47;;;;;;;8.01;100.00;96627.75;5092633;28;20261;-73
2020/12/30 11:55:11;;;;;;;9.33;5.77;;;;;;;7.87;100.00;96621.13;5092040;28;20386;-70
2020/12/30 11:57:37;;;;;;;7.33;5.60;;;;;;;7.96;100.00;96618.97;5092665;28;20201;-70